createdAt,value
2023-04-02T03:53:10.961Z,99938.97
2023-04-02T15:58:38.711Z,101060.94
2023-04-02T16:01:16.075Z,101064.06
2023-04-02T16:04:18.053Z,101064.94
2023-04-02T16:07:02.503Z,101077.03
2023-04-02T16:09:35.363Z,101077.91
2023-04-02T16:12:15.125Z,101081.97
2023-04-02T16:14:47.187Z,101086.75
2023-04-02T16:17:24.983Z,101087.88
2023-04-02T16:19:57.476Z,101090.81
2023-04-02T16:22:30.159Z,101092.63
2023-04-02T16:25:03.356Z,101101.97
2023-04-02T17:34:38.563Z,101240.84
2023-04-02T17:45:31.587Z,101259.50
2023-04-02T18:23:08.849Z,101333.63
2023-04-02T18:25:54.159Z,101343.03
2023-04-02T18:28:49.987Z,101354.94
2023-04-02T18:31:25.830Z,101352.53
2023-04-02T18:34:26.230Z,101360.13
2023-04-02T18:37:06.209Z,101367.13
2023-04-02T18:39:46.835Z,101365.88
2023-04-02T18:42:24.944Z,101382.03
2023-04-02T18:45:03.609Z,101386.34
2023-04-02T18:47:45.210Z,101390.81
2023-04-02T18:50:18.278Z,101391.16
2023-04-02T18:52:47.015Z,101400.41
2023-04-02T18:55:21.761Z,101405.13
2023-04-02T18:57:52.610Z,101403.91
2023-04-02T19:00:28.808Z,101426.50
2023-04-02T19:03:02.926Z,101416.66
2023-04-02T19:05:40.753Z,101425.66
2023-04-02T19:08:18.261Z,101431.31
2023-04-02T19:10:53.729Z,101445.41
2023-04-02T19:13:22.383Z,101439.94
2023-04-02T19:16:13.634Z,101448.16
2023-04-02T19:18:54.078Z,101445.28
2023-04-02T19:21:32.452Z,101447.94
2023-04-02T19:24:25.700Z,101455.59
2023-04-02T19:27:04.672Z,101461.50
2023-04-02T19:29:44.042Z,101461.16
2023-04-02T19:32:22.187Z,101469.81
2023-04-02T19:34:58.812Z,101468.84
2023-04-02T19:37:36.700Z,101478.50
2023-04-02T19:40:14.590Z,101478.03
2023-04-02T19:42:49.407Z,101487.44
2023-04-02T19:45:34.632Z,101487.66
2023-04-02T19:48:11.110Z,101500.28
2023-04-02T19:50:39.104Z,101492.78
2023-04-02T19:53:06.907Z,101494.25
2023-04-02T19:55:34.860Z,101488.44
2023-04-02T19:58:13.117Z,101494.34
2023-04-02T20:00:46.877Z,101501.22
2023-04-02T20:03:14.601Z,101501.09
2023-04-02T20:05:42.303Z,101517.56
2023-04-02T20:08:10.865Z,101517.88
2023-04-02T20:10:38.956Z,101521.78
2023-04-02T20:13:08.243Z,101527.75
2023-04-02T20:15:36.096Z,101527.75
2023-04-02T20:18:05.129Z,101537.66
2023-04-02T20:20:32.975Z,101535.28
2023-04-02T20:23:00.848Z,101534.75
2023-04-02T20:25:28.633Z,101540.03
2023-04-02T20:27:56.273Z,101542.09
2023-04-02T20:30:32.400Z,101544.50
2023-04-02T20:33:00.492Z,101542.81
2023-04-02T20:35:29.518Z,101554.69
2023-04-02T20:37:57.772Z,101553.53
2023-04-02T20:40:26.226Z,101558.81
2023-04-02T20:42:54.039Z,101560.47
2023-04-02T20:45:22.110Z,101560.72
2023-04-02T20:47:51.183Z,101568.59
2023-04-02T20:50:18.826Z,101566.59
2023-04-02T20:52:46.800Z,101575.75
2023-04-02T20:55:14.497Z,101576.91
2023-04-02T20:57:42.369Z,101580.00
2023-04-02T21:00:12.196Z,101580.19
2023-04-02T21:02:39.889Z,101586.06
2023-04-02T21:05:09.239Z,101582.81
2023-04-02T21:07:36.924Z,101593.41
2023-04-02T21:10:05.147Z,101596.25
2023-04-02T21:12:32.824Z,101599.31
2023-04-02T21:15:02.682Z,101598.16
2023-04-02T21:17:30.859Z,101597.06
2023-04-02T21:19:58.491Z,101605.34
2023-04-02T21:22:27.621Z,101607.53
2023-04-02T21:24:55.500Z,101616.41
2023-04-02T21:27:25.946Z,101607.88
2023-04-02T21:29:53.729Z,101607.78
2023-04-02T21:32:22.143Z,101610.22
2023-04-02T21:34:50.359Z,101610.88
2023-04-02T21:37:17.978Z,101606.44
2023-04-02T21:39:47.011Z,101611.94
2023-04-02T21:42:15.227Z,101611.44
2023-04-02T21:44:42.858Z,101614.91
2023-04-02T21:47:10.779Z,101606.75
2023-04-02T21:49:38.557Z,101606.19
2023-04-02T21:52:06.324Z,101604.75
2023-04-02T21:54:34.048Z,101610.44
2023-04-02T21:57:03.285Z,101612.78
2023-04-02T21:59:30.992Z,101607.47
2023-04-02T22:01:58.897Z,101613.63
2023-04-02T22:04:28.415Z,101609.59
2023-04-02T22:06:56.198Z,101615.72
2023-04-02T22:09:26.158Z,101608.13
2023-04-02T22:11:56.117Z,101618.38
2023-04-02T22:14:25.533Z,101618.16
2023-04-02T22:16:53.246Z,101620.16
2023-04-02T22:19:21.363Z,101619.13
2023-04-02T22:21:49.041Z,101625.56
2023-04-02T22:24:19.444Z,101618.00
2023-04-02T22:26:47.799Z,101628.38
2023-04-02T22:29:16.744Z,101625.00
2023-04-02T22:31:45.908Z,101623.94
2023-04-02T22:34:13.709Z,101632.63
2023-04-02T22:36:41.340Z,101632.53
2023-04-02T22:39:11.989Z,101632.63
2023-04-02T22:41:39.638Z,101631.97
2023-04-02T22:44:07.345Z,101634.53
2023-04-02T22:46:35.565Z,101630.69
2023-04-02T22:49:04.765Z,101634.28
2023-04-02T22:51:32.485Z,101635.78
2023-04-02T22:54:00.284Z,101633.16
2023-04-02T22:56:32.175Z,101641.81
2023-04-02T22:59:00.673Z,101634.63
2023-04-02T23:01:30.115Z,101643.16
2023-04-02T23:03:57.894Z,101639.38
2023-04-02T23:06:27.816Z,101643.31
2023-04-02T23:08:55.492Z,101645.53
2023-04-02T23:11:24.698Z,101644.38
2023-04-02T23:13:54.717Z,101652.41
2023-04-02T23:16:23.160Z,101639.38
2023-04-02T23:18:51.240Z,101633.50
2023-04-02T23:21:20.538Z,101644.28
2023-04-02T23:23:51.343Z,101635.09
2023-04-02T23:26:21.236Z,101630.75
2023-04-02T23:28:50.051Z,101628.84
2023-04-02T23:31:20.511Z,101635.44
2023-04-02T23:33:48.510Z,101621.25
2023-04-02T23:36:22.102Z,101622.66
2023-04-02T23:38:54.968Z,101626.34
2023-04-02T23:41:23.739Z,101629.28
2023-04-02T23:43:52.001Z,101634.06
2023-04-02T23:46:19.882Z,101631.13
2023-04-02T23:48:47.959Z,101628.38
2023-04-02T23:51:15.715Z,101625.50
2023-04-02T23:53:44.302Z,101627.84
2023-04-02T23:56:13.569Z,101627.63
2023-04-02T23:58:41.214Z,101632.25
